Time;durP1;ratioP1;P1;durP2;ratioP2;P2;SDS_P1;SDS_P2;PMS_P1;PMS_P2;Temp;Humidity;BMP_temperature;BMP_pressure;BME280_temperature;BME280_humidity;BME280_pressure;Samples;Min_cycle;Max_cycle;Signal;HPM_P1;HPM_P2
2022/05/19 00:48:02;;;;;;;4.80;3.20;;;14.00;66.50;;;;;;4930702;29;20229;-88
2022/05/19 01:07:42;;;;;;;7.13;3.17;;;13.90;72.30;;;;;;4994891;28;20237;-88
2022/05/19 01:10:51;;;;;;;;;;;;;;;;;;;;;
2022/05/19 01:13:34;;;;;;;5.85;3.65;;;13.80;70.50;;;;;;4970682;29;20236;-90
2022/05/19 01:20:00;;;;;;;3.58;3.25;;;13.70;74.10;;;;;;4992951;28;20191;-88
2022/05/19 01:28:54;;;;;;;3.58;2.85;;;13.60;74.30;;;;;;4990065;28;20215;-88
2022/05/19 01:45:30;;;;;;;5.82;3.45;;;13.30;76.10;;;;;;4839122;29;20323;-88
2022/05/19 01:52:17;;;;;;;8.45;3.40;;;13.30;76.00;;;;;;4946957;29;20196;-88
2022/05/19 01:55:10;;;;;;;6.40;3.40;;;13.20;76.00;;;;;;4948203;29;20198;-89
2022/05/19 01:57:43;;;;;;;5.47;3.65;;;13.20;76.00;;;;;;4952271;29;20265;-88
2022/05/19 02:01:03;;;;;;;4.63;3.53;;;13.20;76.10;;;;;;4951541;29;20228;-88
2022/05/19 02:03:39;;;;;;;4.30;3.35;;;13.20;76.00;;;;;;4948901;29;20209;-88
2022/05/19 02:13:21;;;;;;;4.57;3.60;;;13.20;76.00;;;;;;5055970;28;20257;-88
2022/05/19 02:16:07;;;;;;;3.92;3.53;;;13.10;77.20;;;;;;5089494;28;20203;-88
2022/05/19 02:19:02;;;;;;;6.38;3.55;;;13.10;77.40;;;;;;5085266;28;20197;-88
2022/05/19 02:22:14;;;;;;;6.30;3.22;;;13.00;78.70;;;;;;5076421;28;20209;-88
2022/05/19 02:25:06;;;;;;;4.00;3.50;;;12.80;78.90;;;;;;5087221;28;20204;-88
2022/05/19 02:27:37;;;;;;;5.30;4.18;;;12.60;80.00;;;;;;5080219;28;20286;-89
2022/05/19 02:30:42;;;;;;;5.22;4.15;;;12.60;81.30;;;;;;5083231;28;20233;-88
2022/05/19 02:33:52;;;;;;;4.88;3.75;;;12.70;81.20;;;;;;5073492;28;20252;-88
2022/05/19 02:36:35;;;;;;;5.82;3.65;;;12.60;79.50;;;;;;5074325;28;20201;-88
2022/05/19 02:39:02;;;;;;;6.20;3.70;;;12.60;81.20;;;;;;5086352;28;20201;-88
2022/05/19 02:48:51;;;;;;;5.95;3.88;;;12.70;81.30;;;;;;5069963;28;20317;-89
2022/05/19 02:51:23;;;;;;;9.02;4.13;;;12.70;80.40;;;;;;5073284;28;20194;-88
2022/05/19 03:01:47;;;;;;;4.82;4.07;;;12.40;81.50;;;;;;5140842;28;20218;-89
2022/05/19 03:04:14;;;;;;;5.55;3.70;;;12.40;82.10;;;;;;5144932;27;20572;-88
2022/05/19 03:10:44;;;;;;;5.32;3.55;;;12.40;84.10;;;;;;5144595;27;20199;-88
2022/05/19 03:13:27;;;;;;;5.47;3.78;;;12.60;83.40;;;;;;5132603;27;20241;-88
2022/05/19 03:16:20;;;;;;;5.03;3.80;;;12.50;83.00;;;;;;5142682;27;20211;-88
2022/05/19 03:18:48;;;;;;;7.85;4.35;;;12.40;84.10;;;;;;5140775;28;20223;-88
2022/05/19 03:21:21;;;;;;;5.75;3.72;;;12.30;84.10;;;;;;5149201;27;20256;-88
2022/05/19 03:23:50;;;;;;;4.90;3.40;;;12.40;86.00;;;;;;5138387;28;20222;-87
2022/05/19 03:29:45;;;;;;;5.55;3.92;;;12.60;85.10;;;;;;5139649;28;20186;-88
2022/05/19 03:32:56;;;;;;;8.40;4.00;;;13.50;85.60;;;;;;5137723;27;20226;-91
2022/05/19 03:35:31;;;;;;;4.93;3.38;;;13.80;78.60;;;;;;5134816;28;20208;-87
2022/05/19 03:38:00;;;;;;;7.05;3.50;;;13.80;77.10;;;;;;5140095;27;20275;-88
2022/05/19 03:40:27;;;;;;;9.45;4.00;;;13.70;77.50;;;;;;5149145;27;20227;-89
2022/05/19 03:42:56;;;;;;;3.65;3.35;;;13.60;79.40;;;;;;5145020;27;20199;-89
2022/05/19 03:45:39;;;;;;;5.70;3.90;;;13.60;78.60;;;;;;5134744;28;20234;-88
2022/05/19 03:48:26;;;;;;;5.43;3.60;;;13.60;78.70;;;;;;5140475;27;20203;-88
2022/05/19 03:51:35;;;;;;;5.57;3.50;;;14.20;76.70;;;;;;5132991;28;20259;-89
2022/05/19 03:58:02;;;;;;;4.63;3.78;;;13.80;76.40;;;;;;5149992;27;20211;-89
2022/05/19 04:01:41;;;;;;;5.10;3.42;;;13.70;77.00;;;;;;5127709;27;20221;-88
2022/05/19 04:04:32;;;;;;;6.05;3.58;;;14.20;76.70;;;;;;5086737;28;20217;-88
2022/05/19 08:04:21;;;;;;;5.43;3.50;;;20.30;51.50;;;;;;5053965;28;20174;-88
2022/05/19 08:38:07;;;;;;;3.97;3.05;;;23.20;34.80;;;;;;5061388;28;20225;-87
2022/05/19 08:40:53;;;;;;;4.70;3.10;;;24.20;33.60;;;;;;5051166;28;20654;-86
2022/05/19 08:43:24;;;;;;;6.95;3.45;;;24.80;29.30;;;;;;5065509;28;20653;-84
2022/05/19 08:46:00;;;;;;;5.22;3.20;;;25.70;27.50;;;;;;5060269;28;20209;-84
2022/05/19 08:48:45;;;;;;;5.15;3.10;;;27.80;22.00;;;;;;5061831;28;20212;-84
2022/05/19 08:51:14;;;;;;;7.68;5.63;;;31.10;17.10;;;;;;5074770;28;20215;-88
2022/05/19 08:54:04;;;;;;;6.68;4.15;;;33.10;13.20;;;;;;5070986;28;20250;-87
2022/05/19 08:57:14;;;;;;;4.15;3.70;;;32.70;11.60;;;;;;5068870;28;20739;-87
2022/05/19 09:00:02;;;;;;;4.28;3.88;;;34.30;10.30;;;;;;5060486;28;20197;-88
2022/05/19 09:02:48;;;;;;;5.93;4.10;;;35.10;8.60;;;;;;5064763;28;20237;-87
2022/05/19 09:05:36;;;;;;;4.50;4.20;;;36.40;7.70;;;;;;5073729;28;20276;-88
2022/05/19 09:11:46;;;;;;;5.28;4.22;;;34.80;8.30;;;;;;5068932;28;20245;-87
2022/05/19 09:14:29;;;;;;;5.32;4.80;;;36.70;7.30;;;;;;5068657;28;20659;-89
2022/05/19 09:17:01;;;;;;;5.13;4.50;;;38.10;5.40;;;;;;5072665;28;20205;-89
2022/05/19 09:19:39;;;;;;;5.68;4.78;;;38.70;4.00;;;;;;5065645;28;20185;-89
2022/05/19 09:22:29;;;;;;;7.60;5.55;;;39.40;4.30;;;;;;5049360;28;20554;-89
2022/05/19 09:25:07;;;;;;;5.50;5.00;;;39.60;2.30;;;;;;5063935;28;20280;-88
2022/05/19 09:27:39;;;;;;;5.82;5.30;;;38.50;4.70;;;;;;5052837;28;20323;-89
2022/05/19 09:30:32;;;;;;;6.00;5.50;;;38.80;3.90;;;;;;5085364;28;20196;-89
2022/05/19 09:33:07;;;;;;;9.77;5.68;;;37.10;5.10;;;;;;5048011;28;20202;-89
2022/05/19 09:35:43;;;;;;;6.05;5.45;;;38.20;4.00;;;;;;5062362;28;20559;-89
2022/05/19 09:38:33;;;;;;;6.43;5.60;;;38.70;5.10;;;;;;5071989;28;20561;-89
2022/05/19 09:41:05;;;;;;;6.50;6.00;;;39.80;3.90;;;;;;5055730;28;20218;-89
2022/05/19 09:43:36;;;;;;;6.18;5.68;;;39.90;3.10;;;;;;5066252;28;20200;-89
2022/05/19 09:46:44;;;;;;;7.45;6.93;;;40.70;2.40;;;;;;5074536;28;20195;-89
2022/05/19 09:49:27;;;;;;;6.85;6.25;;;40.10;3.30;;;;;;5073840;28;20279;-89
2022/05/19 09:52:01;;;;;;;6.88;6.28;;;40.40;2.30;;;;;;5066140;28;20203;-89
2022/05/19 09:54:31;;;;;;;8.43;7.20;;;39.10;3.00;;;;;;5063708;28;20208;-89
2022/05/19 09:57:10;;;;;;;6.75;5.80;;;39.20;3.80;;;;;;5071091;28;20247;-89
2022/05/19 09:59:46;;;;;;;7.32;6.72;;;39.60;4.20;;;;;;5070677;28;20208;-88
2022/05/19 10:02:30;;;;;;;8.05;6.53;;;39.60;3.20;;;;;;5053123;28;20216;-89
2022/05/19 10:05:00;;;;;;;7.00;6.30;;;39.70;4.10;;;;;;5071706;28;20203;-89
2022/05/19 10:07:40;;;;;;;6.70;6.20;;;39.90;3.20;;;;;;5073952;28;20200;-89
2022/05/19 10:10:21;;;;;;;9.43;6.30;;;40.20;3.40;;;;;;5073850;28;20203;-88
2022/05/19 10:12:49;;;;;;;7.00;6.40;;;39.90;2.30;;;;;;5066727;28;20202;-89
2022/05/19 10:15:51;;;;;;;6.63;6.13;;;39.50;4.50;;;;;;5055858;28;20216;-89
2022/05/19 10:18:50;;;;;;;6.65;5.95;;;39.20;4.80;;;;;;5060680;28;20215;-89
2022/05/19 10:21:55;;;;;;;6.90;6.20;;;38.10;5.40;;;;;;5073154;28;20202;-89
2022/05/19 10:24:41;;;;;;;6.30;5.70;;;37.50;6.70;;;;;;5083159;28;20197;-89
2022/05/19 10:33:43;;;;;;;7.95;5.40;;;38.30;5.10;;;;;;5073756;28;20207;-88
2022/05/19 10:36:39;;;;;;;5.93;5.20;;;37.50;7.00;;;;;;5058659;28;20193;-89
2022/05/19 10:39:22;;;;;;;5.78;5.10;;;37.10;9.00;;;;;;5082422;28;20199;-88
2022/05/19 10:42:00;;;;;;;5.95;4.90;;;36.90;6.60;;;;;;5072867;28;20217;-88
2022/05/19 10:45:05;;;;;;;4.97;4.47;;;36.70;7.90;;;;;;5073501;28;20213;-88
2022/05/19 10:47:47;;;;;;;9.60;5.30;;;37.20;8.20;;;;;;5011219;28;20214;-88
2022/05/19 10:50:39;;;;;;;5.00;4.60;;;36.90;6.90;;;;;;5009101;28;20229;-88
2022/05/19 10:53:39;;;;;;;5.30;4.80;;;36.60;8.50;;;;;;5012221;28;20206;-88
2022/05/19 10:56:33;;;;;;;5.15;4.75;;;37.00;8.30;;;;;;5011267;28;20202;-88
2022/05/19 10:59:14;;;;;;;5.05;4.55;;;37.20;7.40;;;;;;4998352;28;20207;-88
2022/05/19 11:01:59;;;;;;;4.80;4.30;;;37.10;7.40;;;;;;5010057;28;20198;-88
2022/05/19 11:04:49;;;;;;;6.93;4.30;;;36.00;8.00;;;;;;5016454;28;20646;-88
2022/05/19 11:07:56;;;;;;;5.00;4.07;;;34.30;12.30;;;;;;4951701;28;20209;-88
2022/05/19 11:10:30;;;;;;;7.05;4.00;;;33.50;12.60;;;;;;4952912;28;20679;-89
2022/05/19 11:13:38;;;;;;;4.45;3.95;;;32.90;15.60;;;;;;4953467;29;20204;-88
2022/05/19 11:16:25;;;;;;;5.93;3.90;;;32.30;14.30;;;;;;4952823;28;20680;-87
2022/05/19 11:18:58;;;;;;;5.38;3.97;;;31.90;17.00;;;;;;4938368;29;20204;-85
2022/05/19 11:21:34;;;;;;;4.22;3.83;;;31.60;17.20;;;;;;4958758;28;20292;-83
2022/05/19 11:27:45;;;;;;;7.18;4.07;;;31.50;17.50;;;;;;4982726;28;20259;-86
2022/05/19 11:30:46;;;;;;;5.45;3.80;;;31.30;17.30;;;;;;4993734;28;20210;-86
2022/05/19 11:33:25;;;;;;;4.93;3.83;;;30.90;17.10;;;;;;4997658;28;20207;-86
2022/05/19 11:36:16;;;;;;;4.15;3.78;;;30.80;18.10;;;;;;4998822;28;20199;-85
2022/05/19 11:38:56;;;;;;;9.50;4.30;;;30.80;17.00;;;;;;4997349;28;20210;-86
2022/05/19 11:41:31;;;;;;;5.20;3.42;;;30.50;17.60;;;;;;5003473;28;20226;-87
2022/05/19 11:44:01;;;;;;;6.18;3.60;;;30.40;16.80;;;;;;5018307;28;20200;-87
2022/05/19 11:46:37;;;;;;;6.40;3.55;;;29.90;16.60;;;;;;5089021;28;20193;-87
2022/05/19 11:55:32;;;;;;;8.48;3.97;;;30.20;17.90;;;;;;5083680;28;20540;-85
2022/05/19 11:58:20;;;;;;;6.25;3.97;;;29.80;19.10;;;;;;5064142;28;20220;-85
2022/05/19 12:00:56;;;;;;;6.45;3.97;;;30.10;18.90;;;;;;5081618;28;20189;-86
2022/05/19 12:03:35;;;;;;;8.18;4.25;;;30.10;18.00;;;;;;5069456;28;20232;-86
2022/05/19 12:06:16;;;;;;;5.00;3.88;;;30.00;16.60;;;;;;5083064;28;20203;-87
2022/05/19 12:08:56;;;;;;;7.88;4.00;;;30.10;18.90;;;;;;5077844;28;20189;-87
2022/05/19 12:11:52;;;;;;;7.75;4.18;;;30.30;18.00;;;;;;5070254;28;20201;-86
2022/05/19 12:14:45;;;;;;;4.88;3.67;;;30.20;18.60;;;;;;5076526;28;20205;-86
2022/05/19 12:17:29;;;;;;;6.65;3.90;;;30.50;18.30;;;;;;5063559;28;20225;-86
2022/05/19 12:19:58;;;;;;;5.55;3.70;;;30.10;16.70;;;;;;5077168;28;20203;-86
2022/05/19 12:22:36;;;;;;;6.43;3.55;;;30.10;17.60;;;;;;5089551;28;20643;-88
2022/05/19 12:25:39;;;;;;;7.05;3.72;;;30.30;18.40;;;;;;5065088;28;20196;-87
2022/05/19 12:28:30;;;;;;;6.85;4.20;;;30.40;16.80;;;;;;5073324;28;20200;-83
2022/05/19 12:33:52;;;;;;;5.03;3.63;;;30.40;18.30;;;;;;5078293;28;20211;-84
2022/05/19 12:36:32;;;;;;;5.70;3.88;;;30.10;16.80;;;;;;5078259;28;20196;-85
2022/05/19 12:39:28;;;;;;;5.53;3.90;;;30.10;17.90;;;;;;5072926;28;20223;-85
2022/05/19 12:42:18;;;;;;;4.75;3.22;;;29.80;16.70;;;;;;5000640;28;20215;-87
2022/05/19 12:45:00;;;;;;;6.22;3.42;;;29.80;17.00;;;;;;4998905;28;20213;-87
2022/05/19 12:47:56;;;;;;;8.70;3.80;;;29.80;17.30;;;;;;4972533;28;20791;-89
2022/05/19 12:54:27;;;;;;;6.15;3.75;;;30.10;18.00;;;;;;4986570;28;20291;-89
2022/05/19 13:00:43;;;;;;;6.10;3.63;;;30.10;16.70;;;;;;5003004;28;20183;-91
2022/05/19 13:03:32;;;;;;;5.05;3.58;;;30.30;16.80;;;;;;4990920;28;20195;-90
2022/05/19 13:06:05;;;;;;;6.72;3.75;;;30.30;16.80;;;;;;4992462;28;20209;-90
2022/05/19 13:08:38;;;;;;;4.65;3.45;;;30.40;16.80;;;;;;4999832;28;20218;-91
2022/05/19 13:11:11;;;;;;;6.22;3.63;;;30.40;16.90;;;;;;4997272;28;20228;-89
2022/05/19 13:14:04;;;;;;;8.30;3.83;;;30.50;16.90;;;;;;4993471;28;20200;-88
2022/05/19 13:16:44;;;;;;;6.97;3.47;;;30.30;17.20;;;;;;4990962;28;20191;-86
2022/05/19 13:19:17;;;;;;;6.30;3.72;;;30.00;16.60;;;;;;5021685;28;20641;-88
2022/05/19 13:21:50;;;;;;;7.68;3.60;;;30.10;16.70;;;;;;5077592;28;20196;-86
2022/05/19 13:24:40;;;;;;;4.40;3.20;;;29.60;16.40;;;;;;5077626;28;20215;-86
2022/05/19 13:30:51;;;;;;;6.95;3.70;;;29.80;16.50;;;;;;5017407;28;20212;-87
2022/05/19 13:33:22;;;;;;;4.53;3.00;;;29.90;15.90;;;;;;5062376;28;20562;-87
2022/05/19 13:35:59;;;;;;;3.70;3.33;;;30.10;16.10;;;;;;5051064;28;20254;-86
2022/05/19 13:38:27;;;;;;;4.65;3.17;;;30.10;15.30;;;;;;5077350;28;20239;-85
2022/05/19 13:40:56;;;;;;;4.90;3.22;;;30.10;16.70;;;;;;5075094;28;20385;-84
2022/05/19 13:43:35;;;;;;;8.30;3.67;;;30.10;16.70;;;;;;5078298;28;20193;-85
2022/05/19 13:46:27;;;;;;;5.97;3.20;;;29.80;16.50;;;;;;5067692;28;20200;-86
2022/05/19 13:49:00;;;;;;;8.68;3.85;;;29.30;16.30;;;;;;5065624;28;20208;-85
2022/05/19 13:51:41;;;;;;;5.18;3.58;;;29.30;16.30;;;;;;5032282;28;20206;-84
2022/05/19 13:54:11;;;;;;;5.45;3.15;;;29.40;16.40;;;;;;5069054;28;20208;-84
2022/05/19 13:57:24;;;;;;;7.00;3.75;;;29.60;17.90;;;;;;5063356;28;20193;-84
2022/05/19 14:00:11;;;;;;;5.97;3.22;;;29.60;16.40;;;;;;5070348;28;20204;-83
2022/05/19 14:02:41;;;;;;;4.05;3.38;;;29.50;16.40;;;;;;5065417;28;20233;-85
2022/05/19 14:05:50;;;;;;;5.43;3.25;;;29.60;17.60;;;;;;5066912;28;20211;-86
2022/05/19 14:08:33;;;;;;;4.53;3.50;;;29.50;16.40;;;;;;5069415;28;20207;-88
2022/05/19 14:11:01;;;;;;;6.90;3.25;;;29.50;16.80;;;;;;5071381;28;20205;-89
2022/05/19 14:13:52;;;;;;;3.92;3.35;;;29.60;16.40;;;;;;5057150;28;20194;-90
2022/05/19 14:16:38;;;;;;;9.05;3.83;;;29.00;17.60;;;;;;5085933;28;20630;-90
2022/05/19 14:19:18;;;;;;;6.10;3.40;;;29.20;18.20;;;;;;5074161;28;20240;-85
2022/05/19 14:21:45;;;;;;;8.15;3.83;;;29.40;18.40;;;;;;5085279;28;20246;-86
2022/05/19 14:24:18;;;;;;;5.65;3.30;;;29.50;16.40;;;;;;5067425;28;20193;-86
2022/05/19 14:27:08;;;;;;;5.43;3.45;;;29.80;16.50;;;;;;5063073;28;20685;-86
2022/05/19 14:29:52;;;;;;;5.53;3.25;;;29.80;16.50;;;;;;5068027;28;20199;-86
2022/05/19 14:32:33;;;;;;;5.00;3.20;;;29.50;16.40;;;;;;5058902;28;20208;-86
2022/05/19 14:35:37;;;;;;;5.38;3.38;;;29.30;16.30;;;;;;5042193;28;20205;-87
2022/05/19 14:38:13;;;;;;;6.40;3.65;;;29.30;16.30;;;;;;5060459;28;20213;-86
2022/05/19 14:44:02;;;;;;;4.13;3.22;;;29.30;16.30;;;;;;5067200;28;20272;-89
2022/05/19 14:47:02;;;;;;;5.18;3.28;;;29.40;16.30;;;;;;5053187;28;20208;-89
2022/05/19 14:49:50;;;;;;;9.02;3.40;;;29.40;16.30;;;;;;5069797;28;20208;-90
2022/05/19 14:52:28;;;;;;;8.52;3.20;;;29.30;16.30;;;;;;5068368;28;20197;-89
2022/05/19 14:55:07;;;;;;;10.45;3.10;;;29.30;16.30;;;;;;5077573;28;20184;-89
2022/05/19 14:57:41;;;;;;;4.28;2.90;;;29.10;16.20;;;;;;5041783;28;20708;-89
2022/05/19 15:00:15;;;;;;;3.33;3.00;;;29.00;17.00;;;;;;5067007;28;20250;-89
2022/05/19 15:02:51;;;;;;;4.18;2.90;;;28.80;16.00;;;;;;5074779;28;20199;-90
2022/05/19 15:05:28;;;;;;;4.88;2.90;;;28.90;16.10;;;;;;5074074;28;20235;-89
2022/05/19 15:07:59;;;;;;;4.50;3.30;;;28.90;16.20;;;;;;5066266;28;20283;-88
2022/05/19 15:10:34;;;;;;;6.28;3.35;;;28.90;16.50;;;;;;5061299;28;20201;-86
2022/05/19 15:13:25;;;;;;;6.82;3.10;;;28.90;16.10;;;;;;5064129;28;20310;-87
2022/05/19 15:15:57;;;;;;;5.75;3.20;;;28.80;16.00;;;;;;5060382;28;20722;-86
2022/05/19 15:18:24;;;;;;;5.63;3.42;;;28.50;15.90;;;;;;5067057;28;20248;-86
2022/05/19 15:21:09;;;;;;;5.53;3.22;;;28.50;17.20;;;;;;5065023;28;20203;-89
2022/05/19 15:23:45;;;;;;;6.03;2.92;;;28.60;17.50;;;;;;5058580;28;20194;-88
2022/05/19 15:26:14;;;;;;;5.32;3.10;;;28.70;17.30;;;;;;5070549;28;20649;-87
2022/05/19 15:29:10;;;;;;;4.78;3.10;;;28.70;16.00;;;;;;5065417;28;20194;-87
2022/05/19 15:31:39;;;;;;;8.80;4.35;;;28.50;16.40;;;;;;5078380;28;20219;-89
2022/05/19 15:37:46;;;;;;;5.88;3.50;;;28.50;16.50;;;;;;5057631;28;20191;-90
2022/05/19 15:40:17;;;;;;;9.65;3.70;;;28.50;15.90;;;;;;5055597;28;20649;-86
2022/05/19 15:42:52;;;;;;;4.57;3.10;;;28.70;16.00;;;;;;5060578;28;20194;-84
2022/05/19 15:45:35;;;;;;;5.75;3.60;;;28.50;16.20;;;;;;5043671;28;20197;-86
2022/05/19 15:48:17;;;;;;;4.78;3.15;;;28.50;18.20;;;;;;5046858;28;20576;-81
2022/05/19 15:50:47;;;;;;;4.65;3.40;;;28.40;18.50;;;;;;5066351;28;20671;-84
2022/05/19 15:53:32;;;;;;;8.93;3.20;;;28.40;18.40;;;;;;5063700;28;20204;-82
2022/05/19 15:56:09;;;;;;;11.07;3.80;;;28.50;18.50;;;;;;5073220;28;20200;-82
2022/05/19 15:58:39;;;;;;;6.35;3.78;;;28.40;18.20;;;;;;5066480;28;20210;-84
2022/05/19 16:01:16;;;;;;;3.50;3.08;;;28.30;17.40;;;;;;5062051;28;20213;-84
2022/05/19 16:04:14;;;;;;;5.68;3.30;;;28.30;17.80;;;;;;5069155;28;20201;-82
2022/05/19 16:06:41;;;;;;;4.32;3.08;;;28.30;17.90;;;;;;5078843;28;20207;-83
2022/05/19 16:09:08;;;;;;;8.70;4.45;;;28.30;17.60;;;;;;5082718;28;20203;-82
2022/05/19 16:11:51;;;;;;;6.68;3.92;;;28.00;19.10;;;;;;5054472;28;20204;-83
2022/05/19 16:14:38;;;;;;;7.57;3.50;;;27.80;20.00;;;;;;5068095;28;20275;-84
2022/05/19 16:17:17;;;;;;;11.90;4.25;;;27.80;19.30;;;;;;5075528;28;20192;-83
2022/05/19 16:20:10;;;;;;;6.40;3.80;;;27.70;20.80;;;;;;5073143;28;20209;-85
2022/05/19 16:22:42;;;;;;;5.30;3.17;;;27.40;20.40;;;;;;5065520;28;20204;-87
2022/05/19 16:25:12;;;;;;;4.57;3.10;;;27.40;20.80;;;;;;5064160;28;20186;-86
2022/05/19 16:27:58;;;;;;;8.80;3.65;;;27.40;20.30;;;;;;5066089;28;20197;-86
2022/05/19 16:30:39;;;;;;;5.68;3.40;;;27.40;21.00;;;;;;5068138;28;20204;-86
2022/05/19 16:33:07;;;;;;;5.22;3.17;;;27.30;19.50;;;;;;5061952;28;20202;-86
2022/05/19 16:35:52;;;;;;;6.72;3.50;;;27.30;20.00;;;;;;5064856;28;20201;-87
2022/05/19 16:38:22;;;;;;;6.35;3.47;;;27.20;20.00;;;;;;5057184;28;20263;-85
2022/05/19 16:40:51;;;;;;;3.63;3.33;;;27.10;20.90;;;;;;5073919;28;20217;-84
2022/05/19 16:43:21;;;;;;;10.75;4.88;;;26.90;22.00;;;;;;5071529;28;20273;-85
2022/05/19 16:45:57;;;;;;;7.72;4.28;;;26.80;22.50;;;;;;5064307;28;20262;-85
2022/05/19 16:49:08;;;;;;;4.45;3.40;;;26.70;22.20;;;;;;5080794;28;20201;-85
2022/05/19 16:51:52;;;;;;;5.75;3.72;;;26.60;22.30;;;;;;5068696;28;20193;-87
2022/05/19 16:57:43;;;;;;;6.35;3.70;;;26.50;22.20;;;;;;5067536;28;20216;-87
2022/05/19 17:00:14;;;;;;;4.38;3.20;;;26.40;23.50;;;;;;5071910;28;20660;-87
2022/05/19 17:02:58;;;;;;;8.32;3.90;;;26.30;23.30;;;;;;5072699;28;20755;-87
2022/05/19 17:05:26;;;;;;;14.48;4.65;;;26.20;24.70;;;;;;5078562;28;20303;-86
2022/05/19 17:07:58;;;;;;;7.40;4.20;;;26.10;25.10;;;;;;5049805;28;20202;-89
2022/05/19 17:10:35;;;;;;;7.38;4.55;;;25.90;27.00;;;;;;5082499;28;21058;-89
2022/05/19 17:13:17;;;;;;;10.85;7.93;;;25.80;27.50;;;;;;5064464;28;20552;-88
2022/05/19 17:15:46;;;;;;;38.30;34.40;;;25.70;27.70;;;;;;5068903;28;20201;-91
2022/05/19 17:18:21;;;;;;;12.10;10.90;;;25.80;28.20;;;;;;5062207;28;20228;-85
2022/05/19 17:20:50;;;;;;;19.80;12.35;;;25.70;27.80;;;;;;5070158;28;20212;-85
2022/05/19 17:23:22;;;;;;;41.85;36.47;;;25.70;28.10;;;;;;5073205;28;20205;-86
2022/05/19 17:25:51;;;;;;;60.28;52.78;;;25.60;28.40;;;;;;5067790;28;20227;-85
2022/05/19 17:28:21;;;;;;;138.05;114.47;;;25.60;28.20;;;;;;5068984;28;20202;-85
2022/05/19 17:30:51;;;;;;;69.82;57.75;;;25.50;28.60;;;;;;5070275;28;20197;-85
2022/05/19 17:33:27;;;;;;;70.30;52.75;;;25.50;29.30;;;;;;5081320;28;20201;-85
2022/05/19 17:36:15;;;;;;;133.65;105.35;;;25.40;28.80;;;;;;5071098;28;20200;-85
2022/05/19 17:38:50;;;;;;;67.50;54.92;;;25.40;29.60;;;;;;5074979;28;20219;-87
2022/05/19 17:41:39;;;;;;;48.85;40.70;;;25.30;29.60;;;;;;5065513;28;20648;-88
2022/05/19 17:44:06;;;;;;;23.30;14.98;;;25.20;29.20;;;;;;5070989;28;20293;-88
2022/05/19 17:46:33;;;;;;;10.32;7.60;;;25.20;30.30;;;;;;5070375;28;20193;-88
2022/05/19 17:49:09;;;;;;;8.13;6.07;;;25.10;30.50;;;;;;5063723;28;20205;-88
2022/05/19 17:51:39;;;;;;;8.32;5.95;;;25.00;30.40;;;;;;5065568;28;20194;-88
2022/05/19 17:54:08;;;;;;;8.85;6.55;;;25.00;31.50;;;;;;5064392;28;20239;-87
2022/05/19 17:56:42;;;;;;;13.68;8.68;;;24.90;30.70;;;;;;5063412;28;20196;-89
2022/05/19 17:59:16;;;;;;;10.65;8.32;;;24.90;31.20;;;;;;5059873;28;20303;-87
2022/05/19 18:01:54;;;;;;;8.38;6.72;;;24.80;32.10;;;;;;5059549;28;20201;-89
2022/05/19 18:04:23;;;;;;;7.22;5.60;;;24.70;32.50;;;;;;5059431;28;20252;-89
2022/05/19 18:09:56;;;;;;;6.90;5.30;;;24.50;32.60;;;;;;5062007;28;20197;-88
2022/05/19 18:12:40;;;;;;;6.00;4.20;;;24.50;32.60;;;;;;5064517;28;20212;-89
2022/05/19 18:18:25;;;;;;;7.70;5.40;;;24.40;31.80;;;;;;5075383;28;20196;-88
2022/05/19 18:21:05;;;;;;;14.60;9.30;;;24.40;32.10;;;;;;5064133;28;20659;-90
2022/05/19 18:23:36;;;;;;;5.88;4.72;;;24.40;29.50;;;;;;5072280;28;20201;-88
2022/05/19 18:26:15;;;;;;;6.72;4.40;;;24.40;30.10;;;;;;5070806;28;20251;-89
2022/05/19 18:28:49;;;;;;;9.70;4.82;;;24.30;29.00;;;;;;5080046;28;20223;-90
2022/05/19 18:31:18;;;;;;;10.55;4.95;;;24.40;28.10;;;;;;5071899;28;20227;-90
2022/05/19 18:33:47;;;;;;;8.57;4.88;;;24.40;28.00;;;;;;5067410;28;20228;-89
2022/05/19 18:36:34;;;;;;;7.45;4.15;;;24.50;28.20;;;;;;5065400;28;20208;-90
2022/05/19 18:39:05;;;;;;;9.00;4.22;;;24.50;26.70;;;;;;5077049;28;20233;-89
2022/05/19 18:44:53;;;;;;;7.28;3.83;;;24.50;26.90;;;;;;5069585;28;20216;-89
2022/05/19 18:47:28;;;;;;;7.28;4.30;;;24.40;26.60;;;;;;5070518;28;20264;-89
2022/05/19 18:50:02;;;;;;;4.93;3.80;;;24.40;27.90;;;;;;5065358;28;20557;-92
2022/05/19 18:52:46;;;;;;;5.00;3.80;;;24.40;27.20;;;;;;5055277;28;20231;-91
2022/05/19 18:55:16;;;;;;;7.30;3.60;;;24.40;26.70;;;;;;5052234;28;20225;-89
2022/05/19 18:57:47;;;;;;;7.25;4.10;;;24.50;26.30;;;;;;5077255;28;20637;-89
2022/05/19 19:00:16;;;;;;;6.60;3.90;;;24.50;26.50;;;;;;5072094;28;20223;-89
2022/05/19 19:06:10;;;;;;;7.60;3.97;;;24.40;28.00;;;;;;5026429;28;20726;-90
2022/05/19 19:08:44;;;;;;;4.40;3.55;;;24.40;28.20;;;;;;5070123;28;20189;-88
2022/05/19 19:11:25;;;;;;;7.97;3.65;;;24.40;28.40;;;;;;5079364;28;20193;-89
2022/05/19 19:14:12;;;;;;;6.25;3.70;;;24.30;28.60;;;;;;5068575;28;20201;-90
2022/05/19 19:17:12;;;;;;;6.55;3.45;;;24.20;28.40;;;;;;5071411;28;20525;-89
2022/05/19 19:19:55;;;;;;;4.57;3.47;;;24.10;28.40;;;;;;5055982;28;20270;-89
2022/05/19 19:22:47;;;;;;;5.88;3.28;;;24.00;28.30;;;;;;5067101;28;20196;-90
2022/05/19 19:25:52;;;;;;;5.25;3.30;;;24.00;28.50;;;;;;5071259;28;20205;-88
2022/05/19 19:32:13;;;;;;;8.80;3.35;;;23.80;28.10;;;;;;5058205;28;20250;-88
2022/05/19 19:35:10;;;;;;;6.28;3.17;;;23.70;27.90;;;;;;4999099;28;20216;-89
2022/05/19 19:38:10;;;;;;;6.47;3.13;;;23.60;27.60;;;;;;4915105;28;20207;-88
2022/05/19 19:41:25;;;;;;;4.82;3.20;;;23.50;27.90;;;;;;5005930;28;20227;-88
2022/05/19 20:04:02;;;;;;;3.03;2.50;;;22.90;27.70;;;;;;5079223;28;20241;-88
2022/05/19 20:06:58;;;;;;;3.10;2.80;;;22.80;28.10;;;;;;5059535;28;20623;-88
2022/05/19 20:09:41;;;;;;;5.32;2.70;;;22.70;28.30;;;;;;5063163;28;20202;-89
2022/05/19 20:12:16;;;;;;;2.92;2.50;;;22.60;28.80;;;;;;5045245;28;20256;-90
2022/05/19 20:18:05;;;;;;;3.95;2.60;;;22.50;28.70;;;;;;4985697;28;20268;-88
2022/05/19 20:21:20;;;;;;;3.92;2.30;;;22.40;28.40;;;;;;4974715;28;20338;-88
2022/05/19 20:24:27;;;;;;;6.32;2.40;;;22.40;28.70;;;;;;4980003;28;20780;-89
2022/05/19 20:27:00;;;;;;;8.90;2.63;;;22.30;28.50;;;;;;4978963;28;20209;-90
